Time;durP1;ratioP1;P1;durP2;ratioP2;P2;SDS_P1;SDS_P2;PMS_P1;PMS_P2;Temp;Humidity;BMP_temperature;BMP_pressure;BME280_temperature;BME280_humidity;BME280_pressure;Samples;Min_cycle;Max_cycle;Signal;HPM_P1;HPM_P2
2021/12/18 00:01:18;;;;;;;0.10;0.10;;;5.60;99.90;;;;;;4944136;28;20373;-72
2021/12/18 00:03:44;;;;;;;0.10;0.10;;;5.60;99.90;;;;;;4947749;29;20046;-73
2021/12/18 00:06:10;;;;;;;0.10;0.10;;;5.70;99.90;;;;;;4945970;28;20024;-72
2021/12/18 00:08:37;;;;;;;0.10;0.10;;;5.80;99.90;;;;;;4943879;28;20063;-73
2021/12/18 00:11:03;;;;;;;0.47;0.47;;;5.70;99.90;;;;;;4943981;29;20027;-72
2021/12/18 00:13:29;;;;;;;0.10;0.10;;;5.50;99.90;;;;;;4944061;28;20038;-74
2021/12/18 00:15:55;;;;;;;0.47;0.47;;;5.40;99.90;;;;;;4942870;29;20027;-72
2021/12/18 00:18:21;;;;;;;0.10;0.10;;;5.50;99.90;;;;;;4946608;28;20382;-72
2021/12/18 00:20:47;;;;;;;1.88;1.75;;;5.50;99.90;;;;;;4940234;29;20024;-72
2021/12/18 00:23:13;;;;;;;0.10;0.10;;;5.50;99.90;;;;;;4944719;28;20027;-74
2021/12/18 00:25:38;;;;;;;0.10;0.10;;;5.60;99.90;;;;;;4942357;28;20037;-72
2021/12/18 00:28:04;;;;;;;0.10;0.10;;;5.60;99.90;;;;;;4944433;28;20631;-73
2021/12/18 00:30:30;;;;;;;0.10;0.10;;;5.40;99.90;;;;;;4945181;28;20377;-74
2021/12/18 00:32:56;;;;;;;0.10;0.10;;;5.50;99.90;;;;;;4947436;28;20012;-72
2021/12/18 00:35:23;;;;;;;0.30;0.30;;;5.50;99.90;;;;;;4944021;28;20027;-72
2021/12/18 00:37:49;;;;;;;0.10;0.10;;;5.50;99.90;;;;;;4945307;28;20038;-72
2021/12/18 00:40:22;;;;;;;0.10;0.10;;;5.50;99.90;;;;;;4952192;28;20433;-71
2021/12/18 00:42:56;;;;;;;0.10;0.10;;;5.50;99.90;;;;;;4955120;28;20477;-71
2021/12/18 00:45:21;;;;;;;0.10;0.10;;;5.40;99.90;;;;;;4952936;28;20430;-72
2021/12/18 00:47:47;;;;;;;0.10;0.10;;;5.50;99.90;;;;;;4953796;28;20041;-72
2021/12/18 00:50:21;;;;;;;0.10;0.10;;;5.70;99.90;;;;;;4946568;29;20110;-72
2021/12/18 00:52:47;;;;;;;0.13;0.13;;;5.50;99.90;;;;;;4954132;28;20055;-73
2021/12/18 00:55:15;;;;;;;0.20;0.20;;;5.50;99.90;;;;;;4949584;28;20115;-71
2021/12/18 00:57:41;;;;;;;0.75;0.75;;;5.40;99.90;;;;;;4949825;28;20077;-72
2021/12/18 01:00:09;;;;;;;0.10;0.10;;;5.30;99.90;;;;;;4952549;28;20023;-72
2021/12/18 01:02:37;;;;;;;0.10;0.10;;;5.40;99.90;;;;;;4946452;28;20067;-72
2021/12/18 01:05:05;;;;;;;0.10;0.10;;;5.30;99.90;;;;;;4949123;29;20119;-72
2021/12/18 01:07:30;;;;;;;0.47;0.47;;;5.40;99.90;;;;;;4942245;29;20035;-72
2021/12/18 01:10:04;;;;;;;0.20;0.20;;;5.30;99.90;;;;;;4949276;28;20034;-72
2021/12/18 01:12:39;;;;;;;0.35;0.35;;;5.30;99.90;;;;;;4948693;29;20094;-71
2021/12/18 01:15:32;;;;;;;0.10;0.10;;;5.30;99.90;;;;;;4952333;28;20043;-72
2021/12/18 01:23:22;;;;;;;0.73;0.73;;;5.20;99.90;;;;;;4953877;28;20042;-72
2021/12/18 01:25:50;;;;;;;0.20;0.20;;;5.10;99.90;;;;;;4946582;28;20027;-71
2021/12/18 01:28:16;;;;;;;0.10;0.10;;;5.10;99.90;;;;;;4943001;29;20028;-71
2021/12/18 01:30:42;;;;;;;0.55;0.55;;;5.10;99.90;;;;;;4943489;28;20034;-71
2021/12/18 01:33:08;;;;;;;0.10;0.10;;;5.10;99.90;;;;;;4942410;28;20100;-72
2021/12/18 01:35:34;;;;;;;0.52;0.52;;;5.20;99.90;;;;;;4949390;29;20062;-71
2021/12/18 01:38:00;;;;;;;0.10;0.10;;;5.10;99.90;;;;;;4954024;28;20039;-72
2021/12/18 01:40:27;;;;;;;0.10;0.10;;;5.10;99.90;;;;;;4952989;28;20082;-72
2021/12/18 01:43:44;;;;;;;0.10;0.10;;;5.10;99.90;;;;;;4950824;28;20579;-72
2021/12/18 01:51:20;;;;;;;0.20;0.20;;;5.10;99.90;;;;;;4941902;28;20041;-71
2021/12/18 01:53:49;;;;;;;0.10;0.10;;;5.10;99.90;;;;;;4950308;28;20031;-72
2021/12/18 01:56:15;;;;;;;0.57;0.57;;;5.10;99.90;;;;;;4956813;28;20057;-72
2021/12/18 01:58:43;;;;;;;0.80;0.80;;;5.10;99.90;;;;;;4945185;28;20492;-72
2021/12/18 02:01:09;;;;;;;3.45;3.25;;;5.10;99.90;;;;;;4952134;28;20031;-71
2021/12/18 02:03:35;;;;;;;0.88;0.65;;;5.10;99.90;;;;;;4951742;28;20928;-72
2021/12/18 02:06:01;;;;;;;0.30;0.30;;;5.20;99.90;;;;;;4952977;28;20035;-71
2021/12/18 02:08:29;;;;;;;0.10;0.10;;;5.00;99.90;;;;;;4952249;28;20466;-71
2021/12/18 02:11:01;;;;;;;0.10;0.10;;;5.00;99.90;;;;;;4952450;28;20366;-71
2021/12/18 02:21:29;;;;;;;0.10;0.10;;;4.80;99.90;;;;;;4952746;29;20090;-72
2021/12/18 02:23:55;;;;;;;0.10;0.10;;;4.80;99.90;;;;;;4952637;28;20036;-71
2021/12/18 02:26:22;;;;;;;0.20;0.20;;;4.90;99.90;;;;;;4952292;28;20039;-71
2021/12/18 02:28:50;;;;;;;0.45;0.45;;;4.80;99.90;;;;;;4952708;28;20070;-71
2021/12/18 02:31:16;;;;;;;0.35;0.28;;;4.80;99.90;;;;;;4951780;28;20199;-71
2021/12/18 02:33:42;;;;;;;0.30;0.30;;;4.90;99.90;;;;;;4941187;28;20044;-71
2021/12/18 02:36:10;;;;;;;0.10;0.10;;;4.90;99.90;;;;;;4941390;29;20027;-71
2021/12/18 02:39:03;;;;;;;0.17;0.17;;;4.90;99.90;;;;;;4952897;28;20027;-71
2021/12/18 02:44:00;;;;;;;0.35;0.35;;;4.90;99.90;;;;;;4952612;28;20511;-71
2021/12/18 02:46:25;;;;;;;0.10;0.10;;;4.90;99.90;;;;;;4951699;29;20034;-71
2021/12/18 02:48:53;;;;;;;0.10;0.10;;;5.00;99.90;;;;;;4952684;28;20035;-71
2021/12/18 02:51:20;;;;;;;0.10;0.10;;;4.80;99.90;;;;;;4951453;28;20058;-70
2021/12/18 02:53:48;;;;;;;0.85;0.85;;;4.90;99.90;;;;;;4953023;28;20027;-70
2021/12/18 02:56:15;;;;;;;0.38;0.38;;;4.80;99.90;;;;;;4953655;28;20023;-70
2021/12/18 02:58:43;;;;;;;0.10;0.10;;;4.90;99.90;;;;;;4952311;28;20034;-70
2021/12/18 03:01:13;;;;;;;0.82;0.82;;;4.80;99.90;;;;;;4953005;28;20029;-70
2021/12/18 03:03:41;;;;;;;0.10;0.10;;;4.70;99.90;;;;;;4954857;28;20027;-70
2021/12/18 03:25:04;;;;;;;2.30;1.55;;;4.60;99.90;;;;;;4933095;29;20083;-71
2021/12/18 03:27:30;;;;;;;0.10;0.10;;;4.70;99.90;;;;;;4932958;29;20075;-72
2021/12/18 03:29:57;;;;;;;0.10;0.10;;;4.60;99.90;;;;;;4951688;28;20106;-71
2021/12/18 03:32:24;;;;;;;0.20;0.20;;;4.60;99.90;;;;;;4951457;28;20027;-70
2021/12/18 03:34:51;;;;;;;0.10;0.10;;;4.60;99.90;;;;;;4950972;29;20482;-71
2021/12/18 03:37:18;;;;;;;0.10;0.10;;;4.60;99.90;;;;;;4948999;28;20130;-72
2021/12/18 03:39:44;;;;;;;0.10;0.10;;;4.60;99.90;;;;;;4945757;29;20030;-72
2021/12/18 03:42:10;;;;;;;0.20;0.20;;;4.70;99.90;;;;;;4951134;28;20054;-72
2021/12/18 03:44:37;;;;;;;0.10;0.10;;;4.60;99.90;;;;;;4946665;28;20481;-75
2021/12/18 03:47:04;;;;;;;0.10;0.10;;;4.60;99.90;;;;;;4952152;29;20478;-72
2021/12/18 03:49:29;;;;;;;0.10;0.10;;;4.50;99.90;;;;;;4951078;28;20243;-70
2021/12/18 03:51:55;;;;;;;0.10;0.10;;;4.50;99.90;;;;;;4951447;28;20446;-72
2021/12/18 03:54:21;;;;;;;0.50;0.50;;;4.50;99.90;;;;;;4950732;28;20035;-69
2021/12/18 03:56:47;;;;;;;0.17;0.17;;;4.50;99.90;;;;;;4951621;28;20066;-70
2021/12/18 03:59:13;;;;;;;0.10;0.10;;;4.40;99.90;;;;;;4949914;28;20466;-70
2021/12/18 04:01:38;;;;;;;0.25;0.25;;;4.20;99.90;;;;;;4950974;29;20031;-69
2021/12/18 04:04:04;;;;;;;0.10;0.10;;;4.20;99.90;;;;;;4950834;28;20469;-69
2021/12/18 04:06:31;;;;;;;0.10;0.10;;;4.30;99.90;;;;;;4951981;28;20711;-70
2021/12/18 04:08:57;;;;;;;0.10;0.10;;;4.40;99.90;;;;;;4951196;28;20114;-71
2021/12/18 04:11:23;;;;;;;0.10;0.10;;;4.40;99.90;;;;;;4951640;28;20059;-70
2021/12/18 04:13:49;;;;;;;1.00;1.00;;;4.50;99.90;;;;;;4952410;28;20058;-71
2021/12/18 04:16:16;;;;;;;0.10;0.10;;;4.40;99.90;;;;;;4946659;28;20126;-71
2021/12/18 04:18:42;;;;;;;0.10;0.10;;;4.40;99.90;;;;;;4954067;28;20470;-71
2021/12/18 04:21:07;;;;;;;0.10;0.10;;;4.40;99.90;;;;;;4954536;28;20561;-71
2021/12/18 04:23:33;;;;;;;0.10;0.10;;;4.40;99.90;;;;;;4954840;28;20394;-71
2021/12/18 04:25:59;;;;;;;0.10;0.10;;;4.50;99.90;;;;;;4954775;28;20413;-71
2021/12/18 04:28:25;;;;;;;4.45;3.25;;;4.40;99.90;;;;;;4944411;28;20048;-70
2021/12/18 04:30:51;;;;;;;0.10;0.10;;;4.50;99.90;;;;;;4949695;29;20027;-71
2021/12/18 04:33:17;;;;;;;0.10;0.10;;;4.30;99.90;;;;;;4947240;28;20039;-70
2021/12/18 04:35:43;;;;;;;0.45;0.45;;;4.30;99.90;;;;;;4948743;28;20482;-71
2021/12/18 04:38:08;;;;;;;0.10;0.10;;;4.30;99.90;;;;;;4954539;28;20039;-71
2021/12/18 04:40:35;;;;;;;0.10;0.10;;;4.20;99.90;;;;;;4952194;29;20095;-70
2021/12/18 04:43:01;;;;;;;0.20;0.20;;;4.20;99.90;;;;;;4954544;28;20042;-71
2021/12/18 04:45:26;;;;;;;0.10;0.10;;;4.10;99.90;;;;;;4949948;29;20093;-71
2021/12/18 04:47:52;;;;;;;0.10;0.10;;;4.00;99.90;;;;;;4936348;29;20403;-71
2021/12/18 04:50:18;;;;;;;1.35;1.33;;;4.00;99.90;;;;;;4935233;29;20062;-71
2021/12/18 04:52:44;;;;;;;0.10;0.10;;;4.00;99.90;;;;;;4947111;28;20496;-71
2021/12/18 04:55:10;;;;;;;0.20;0.20;;;4.00;99.90;;;;;;4953828;28;20398;-70
2021/12/18 04:57:35;;;;;;;0.13;0.13;;;4.00;99.90;;;;;;4956082;29;20027;-71
2021/12/18 05:00:01;;;;;;;0.10;0.10;;;4.10;99.90;;;;;;4956022;28;20307;-71
2021/12/18 05:02:36;;;;;;;0.10;0.10;;;4.00;99.90;;;;;;4956584;28;20441;-72
2021/12/18 05:05:04;;;;;;;0.45;0.45;;;3.90;99.90;;;;;;4954877;28;20031;-72
2021/12/18 05:07:29;;;;;;;1.00;1.00;;;3.90;99.90;;;;;;4949445;28;20126;-71
2021/12/18 05:09:55;;;;;;;0.20;0.20;;;3.90;99.90;;;;;;4947986;28;20117;-71
2021/12/18 05:12:21;;;;;;;0.82;0.82;;;3.80;99.90;;;;;;4954332;28;20038;-71
2021/12/18 05:14:47;;;;;;;1.52;1.40;;;3.80;99.90;;;;;;4954021;28;20028;-71
2021/12/18 05:17:12;;;;;;;0.10;0.10;;;3.80;99.90;;;;;;4938726;28;20080;-71
2021/12/18 05:19:38;;;;;;;0.10;0.10;;;3.70;99.90;;;;;;4934627;29;20466;-71
2021/12/18 05:22:05;;;;;;;0.20;0.20;;;3.80;99.90;;;;;;4948734;28;20473;-72
2021/12/18 05:24:31;;;;;;;0.10;0.10;;;3.80;99.90;;;;;;4958910;28;20031;-72
2021/12/18 05:26:57;;;;;;;0.00;0.00;;;3.80;99.90;;;;;;4953441;28;20109;-72
2021/12/18 05:29:23;;;;;;;0.10;0.10;;;3.90;99.90;;;;;;4954010;28;20484;-72
2021/12/18 05:31:49;;;;;;;0.10;0.10;;;4.00;99.90;;;;;;4953197;28;20031;-71
2021/12/18 05:34:23;;;;;;;1.35;1.33;;;4.00;99.90;;;;;;4945972;28;20179;-70
2021/12/18 05:37:14;;;;;;;0.43;0.40;;;3.90;99.90;;;;;;4953360;28;20023;-70
2021/12/18 05:39:37;;;;;;;0.10;0.10;;;3.90;99.90;;;;;;4964026;28;20035;-71
2021/12/18 05:42:03;;;;;;;0.10;0.10;;;3.80;99.90;;;;;;4946698;28;20741;-71
2021/12/18 05:44:28;;;;;;;7.90;5.68;;;3.80;99.90;;;;;;4944918;29;20095;-71
2021/12/18 05:46:55;;;;;;;0.60;0.60;;;3.80;99.90;;;;;;4951400;29;20497;-70
2021/12/18 05:49:21;;;;;;;0.10;0.10;;;3.80;99.90;;;;;;4953182;28;20042;-70
2021/12/18 05:51:47;;;;;;;2.88;2.30;;;3.70;99.90;;;;;;4942954;28;20051;-71
2021/12/18 05:54:14;;;;;;;0.10;0.10;;;3.70;99.90;;;;;;4946183;28;20035;-70
2021/12/18 05:56:39;;;;;;;0.17;0.17;;;3.60;99.90;;;;;;4953464;28;20035;-70
2021/12/18 05:59:06;;;;;;;0.10;0.10;;;3.60;99.90;;;;;;4945405;28;20103;-70
2021/12/18 06:01:32;;;;;;;0.10;0.10;;;3.60;99.90;;;;;;4952674;28;20482;-71
2021/12/18 06:03:58;;;;;;;0.10;0.10;;;3.60;99.90;;;;;;4952922;28;20046;-70
2021/12/18 06:06:25;;;;;;;0.10;0.10;;;3.90;99.90;;;;;;4952915;28;20114;-70
2021/12/18 06:08:51;;;;;;;0.10;0.10;;;3.60;99.90;;;;;;4948059;28;20485;-71
2021/12/18 06:11:20;;;;;;;0.15;0.15;;;3.60;99.90;;;;;;4933772;29;20123;-70
2021/12/18 06:13:50;;;;;;;1.75;1.65;;;3.60;99.90;;;;;;4940278;29;20028;-70
2021/12/18 06:16:20;;;;;;;0.10;0.10;;;3.70;99.90;;;;;;4953012;28;20514;-71
2021/12/18 06:18:50;;;;;;;0.10;0.10;;;3.70;99.90;;;;;;4952144;28;20055;-70
2021/12/18 06:21:20;;;;;;;2.20;1.65;;;3.60;99.90;;;;;;4958890;28;20405;-70
2021/12/18 06:23:48;;;;;;;0.10;0.10;;;3.60;99.90;;;;;;4951617;28;20131;-70
2021/12/18 06:26:15;;;;;;;0.22;0.22;;;3.70;99.90;;;;;;4951629;28;20450;-71
2021/12/18 06:28:41;;;;;;;0.43;0.43;;;3.80;99.90;;;;;;4951525;28;20118;-70
2021/12/18 06:31:07;;;;;;;0.90;0.90;;;3.90;99.90;;;;;;4948788;28;20122;-71
2021/12/18 06:33:32;;;;;;;0.10;0.10;;;4.00;99.90;;;;;;4953333;28;20041;-71
2021/12/18 06:35:59;;;;;;;0.10;0.10;;;3.90;99.90;;;;;;4953527;28;20058;-70
2021/12/18 06:38:24;;;;;;;0.10;0.10;;;3.80;99.90;;;;;;4952660;28;20529;-71
2021/12/18 06:40:50;;;;;;;0.10;0.10;;;3.90;99.90;;;;;;4947162;28;20114;-71
2021/12/18 06:43:16;;;;;;;0.10;0.10;;;3.80;99.90;;;;;;4937050;29;20046;-71
2021/12/18 06:45:42;;;;;;;0.10;0.10;;;3.90;99.90;;;;;;4950992;28;20023;-71
2021/12/18 06:48:08;;;;;;;0.13;0.13;;;4.00;99.90;;;;;;4952068;28;20031;-71
2021/12/18 06:50:35;;;;;;;0.20;0.20;;;4.00;99.90;;;;;;4952288;28;20035;-71
2021/12/18 06:53:01;;;;;;;0.13;0.13;;;4.00;99.90;;;;;;4951762;29;20086;-71
2021/12/18 06:55:27;;;;;;;0.55;0.55;;;4.10;99.90;;;;;;4951993;28;20090;-71
2021/12/18 06:57:52;;;;;;;3.47;3.30;;;4.10;99.90;;;;;;4951550;28;20031;-72
2021/12/18 07:00:20;;;;;;;0.10;0.10;;;4.00;99.90;;;;;;4951194;28;20278;-70
2021/12/18 07:02:46;;;;;;;0.17;0.17;;;3.90;99.90;;;;;;4951677;28;20023;-71
2021/12/18 07:05:12;;;;;;;1.00;1.00;;;3.80;99.90;;;;;;4951078;28;20035;-70
2021/12/18 07:07:38;;;;;;;0.10;0.10;;;3.90;99.90;;;;;;4951470;29;20027;-70
2021/12/18 07:10:06;;;;;;;0.10;0.10;;;3.90;99.90;;;;;;4951309;28;20114;-70
2021/12/18 07:12:32;;;;;;;0.10;0.10;;;3.80;99.90;;;;;;4951312;28;20038;-70
2021/12/18 07:14:58;;;;;;;0.10;0.10;;;3.80;99.90;;;;;;4941487;28;20064;-70
2021/12/18 07:17:24;;;;;;;0.15;0.15;;;3.80;99.90;;;;;;4932509;29;20074;-71
2021/12/18 07:19:50;;;;;;;0.10;0.10;;;3.70;99.90;;;;;;4947508;29;20038;-71
2021/12/18 07:22:15;;;;;;;0.10;0.10;;;3.80;99.90;;;;;;4951748;28;20385;-71
2021/12/18 07:24:41;;;;;;;0.10;0.10;;;3.80;99.90;;;;;;4935537;28;20454;-70
2021/12/18 07:27:07;;;;;;;0.73;0.73;;;3.80;99.90;;;;;;4946583;29;20438;-71
2021/12/18 07:29:33;;;;;;;0.90;0.90;;;3.90;99.90;;;;;;4950682;28;20101;-70
2021/12/18 07:31:59;;;;;;;0.10;0.10;;;3.90;99.90;;;;;;4951410;28;20023;-70
2021/12/18 07:34:24;;;;;;;0.10;0.10;;;4.00;99.90;;;;;;4950560;28;20035;-70
2021/12/18 07:36:50;;;;;;;1.17;1.08;;;4.00;99.90;;;;;;4952066;29;20030;-72
2021/12/18 07:39:16;;;;;;;0.10;0.10;;;4.00;99.90;;;;;;4951561;28;20042;-72
2021/12/18 07:41:42;;;;;;;0.10;0.10;;;4.00;99.90;;;;;;4951418;28;20031;-71
2021/12/18 07:44:08;;;;;;;0.10;0.10;;;4.10;99.90;;;;;;4950616;28;20119;-72
2021/12/18 07:46:36;;;;;;;0.10;0.10;;;4.10;99.90;;;;;;4950641;28;20074;-71
2021/12/18 07:49:03;;;;;;;0.10;0.10;;;4.10;99.90;;;;;;4951045;28;20023;-72
2021/12/18 07:51:29;;;;;;;0.10;0.10;;;4.10;99.90;;;;;;4950337;28;20046;-71
2021/12/18 07:53:55;;;;;;;0.10;0.10;;;3.90;99.90;;;;;;4950906;28;20478;-71
2021/12/18 07:56:21;;;;;;;0.43;0.43;;;3.90;99.90;;;;;;4951031;28;20023;-71
2021/12/18 07:58:46;;;;;;;0.30;0.30;;;3.90;99.90;;;;;;4950952;28;20031;-71
2021/12/18 08:01:12;;;;;;;0.10;0.10;;;3.80;99.90;;;;;;4933025;28;20062;-72
2021/12/18 08:03:38;;;;;;;0.30;0.30;;;3.90;99.90;;;;;;4932061;29;20474;-72
2021/12/18 08:06:04;;;;;;;0.10;0.10;;;4.00;99.90;;;;;;4931918;29;20071;-71
2021/12/18 08:08:29;;;;;;;0.10;0.10;;;4.10;99.90;;;;;;4932251;29;20040;-72
2021/12/18 08:10:55;;;;;;;0.10;0.10;;;4.10;99.90;;;;;;4949799;28;20117;-71
2021/12/18 08:13:21;;;;;;;0.10;0.10;;;4.00;99.90;;;;;;4950892;28;20140;-71
2021/12/18 08:15:46;;;;;;;0.10;0.10;;;4.00;99.90;;;;;;4950624;28;20046;-71
2021/12/18 08:18:12;;;;;;;0.10;0.10;;;4.00;99.90;;;;;;4950712;28;20069;-71
2021/12/18 08:20:38;;;;;;;0.10;0.10;;;3.70;99.90;;;;;;4950421;29;20098;-71
2021/12/18 08:23:04;;;;;;;0.10;0.10;;;3.90;99.90;;;;;;4942750;28;20037;-72
2021/12/18 08:25:31;;;;;;;0.10;0.10;;;4.00;99.90;;;;;;4950732;28;20043;-71
2021/12/18 08:28:00;;;;;;;0.10;0.10;;;4.10;99.90;;;;;;4950510;28;20027;-71
2021/12/18 08:30:31;;;;;;;0.10;0.10;;;4.20;99.90;;;;;;4950544;28;20042;-73
2021/12/18 08:32:58;;;;;;;0.10;0.10;;;4.10;99.90;;;;;;4950407;28;20039;-70
2021/12/18 08:35:25;;;;;;;0.10;0.10;;;4.10;99.90;;;;;;4950676;28;20026;-72
2021/12/18 08:37:52;;;;;;;0.77;0.73;;;4.20;99.90;;;;;;4950283;28;20027;-72
2021/12/18 08:40:18;;;;;;;0.10;0.10;;;4.30;99.90;;;;;;4950169;28;20103;-72
2021/12/18 08:42:44;;;;;;;0.10;0.10;;;4.30;99.90;;;;;;4950823;28;20027;-71
2021/12/18 08:45:10;;;;;;;0.17;0.17;;;4.30;99.90;;;;;;4944255;28;20043;-72
2021/12/18 08:47:36;;;;;;;0.10;0.10;;;4.20;99.90;;;;;;4931964;29;20036;-71
2021/12/18 08:50:03;;;;;;;0.10;0.10;;;4.00;99.90;;;;;;4947452;28;20029;-70
2021/12/18 08:52:28;;;;;;;0.10;0.10;;;4.30;99.90;;;;;;4959271;28;20023;-72
2021/12/18 08:54:59;;;;;;;0.10;0.10;;;4.20;99.90;;;;;;4956711;28;20046;-70
2021/12/18 08:57:25;;;;;;;0.10;0.10;;;4.30;99.90;;;;;;4951325;28;20019;-70
2021/12/18 08:59:50;;;;;;;0.25;0.25;;;4.40;99.90;;;;;;4953222;28;20528;-71
2021/12/18 09:02:16;;;;;;;0.10;0.10;;;4.50;99.90;;;;;;4952706;28;20035;-72
2021/12/18 09:04:42;;;;;;;0.10;0.10;;;4.40;99.90;;;;;;4952876;28;20035;-71
2021/12/18 09:07:08;;;;;;;0.75;0.75;;;4.40;99.90;;;;;;4954213;28;20500;-73
2021/12/18 09:09:34;;;;;;;2.17;2.08;;;4.40;99.90;;;;;;4953401;28;20520;-70
2021/12/18 09:11:59;;;;;;;0.10;0.10;;;4.50;99.90;;;;;;4951209;28;20042;-72
2021/12/18 09:14:25;;;;;;;0.10;0.10;;;4.50;99.90;;;;;;4949632;28;20479;-71
2021/12/18 09:16:52;;;;;;;0.10;0.10;;;4.50;99.90;;;;;;4962209;28;20041;-73
2021/12/18 09:19:18;;;;;;;0.10;0.10;;;4.40;99.90;;;;;;4953868;28;20481;-72
2021/12/18 09:21:44;;;;;;;0.10;0.10;;;4.50;99.90;;;;;;4955150;28;20039;-72
2021/12/18 09:24:12;;;;;;;0.10;0.10;;;4.50;99.90;;;;;;4960158;28;20062;-70
2021/12/18 09:26:38;;;;;;;0.10;0.10;;;4.60;99.90;;;;;;4960700;28;20074;-72
2021/12/18 09:29:04;;;;;;;0.10;0.10;;;4.70;99.90;;;;;;4958625;28;20091;-71
2021/12/18 09:31:30;;;;;;;0.22;0.22;;;4.60;99.90;;;;;;4953958;29;20078;-73
2021/12/18 09:33:55;;;;;;;0.10;0.10;;;4.60;99.90;;;;;;4962008;28;20027;-72
2021/12/18 09:36:21;;;;;;;0.10;0.10;;;4.40;99.90;;;;;;4965590;28;20039;-66
2021/12/18 09:38:47;;;;;;;0.25;0.25;;;4.40;99.90;;;;;;4943071;28;20036;-67
2021/12/18 09:41:14;;;;;;;0.10;0.10;;;3.80;99.90;;;;;;4948815;28;20068;-68
2021/12/18 09:43:40;;;;;;;0.10;0.10;;;3.90;99.90;;;;;;4951544;29;20035;-71
2021/12/18 09:46:12;;;;;;;0.10;0.10;;;4.30;99.90;;;;;;4944726;28;20496;-70
2021/12/18 09:48:40;;;;;;;1.37;1.27;;;4.40;99.90;;;;;;4944709;29;20031;-73
2021/12/18 09:51:11;;;;;;;0.10;0.10;;;4.50;99.90;;;;;;4944065;28;20626;-72
2021/12/18 09:53:37;;;;;;;0.30;0.30;;;4.70;99.90;;;;;;4953464;28;20182;-72
2021/12/18 09:56:04;;;;;;;0.10;0.10;;;4.60;99.90;;;;;;4948695;28;20110;-73
2021/12/18 09:58:31;;;;;;;0.10;0.10;;;4.80;99.90;;;;;;4951475;28;20050;-72
2021/12/18 10:00:57;;;;;;;1.70;1.60;;;4.70;99.90;;;;;;4949865;28;20034;-71
2021/12/18 10:03:54;;;;;;;0.10;0.10;;;4.70;99.90;;;;;;4949618;28;20031;-74
2021/12/18 10:06:34;;;;;;;0.57;0.57;;;4.70;99.90;;;;;;4952029;29;20031;-72
2021/12/18 10:09:00;;;;;;;0.10;0.10;;;4.70;99.90;;;;;;4945687;28;20036;-72
2021/12/18 10:11:26;;;;;;;0.10;0.10;;;4.70;99.90;;;;;;4948717;28;20412;-71
2021/12/18 10:13:59;;;;;;;0.10;0.10;;;4.60;99.90;;;;;;4949784;28;20027;-72
2021/12/18 10:16:27;;;;;;;0.10;0.10;;;4.70;99.90;;;;;;4950684;29;20023;-73
2021/12/18 10:18:53;;;;;;;0.10;0.10;;;4.80;99.90;;;;;;4946606;28;20026;-73
2021/12/18 10:21:23;;;;;;;0.10;0.10;;;4.80;99.90;;;;;;4944813;29;20068;-73
2021/12/18 10:23:51;;;;;;;0.15;0.15;;;4.80;99.90;;;;;;4950240;28;20106;-71
2021/12/18 10:26:46;;;;;;;0.30;0.30;;;4.90;99.90;;;;;;4952521;28;20039;-73
2021/12/18 10:29:34;;;;;;;0.10;0.10;;;4.90;99.90;;;;;;4945218;28;20042;-73
2021/12/18 10:32:10;;;;;;;0.10;0.10;;;4.90;99.90;;;;;;4948073;29;20831;-74
2021/12/18 10:34:38;;;;;;;0.10;0.10;;;4.90;99.90;;;;;;4944894;28;20051;-73
2021/12/18 10:37:26;;;;;;;0.10;0.10;;;4.60;99.90;;;;;;4947230;28;20450;-74
2021/12/18 10:39:53;;;;;;;0.10;0.10;;;4.80;99.90;;;;;;4963699;28;20413;-73
2021/12/18 10:42:25;;;;;;;0.68;0.68;;;4.90;99.90;;;;;;4950004;28;20030;-72
2021/12/18 10:45:15;;;;;;;0.10;0.10;;;4.80;99.90;;;;;;4964961;28;20130;-73
2021/12/18 10:47:43;;;;;;;0.10;0.10;;;5.00;99.90;;;;;;4960343;28;20031;-74
2021/12/18 10:50:27;;;;;;;0.10;0.10;;;5.10;99.90;;;;;;4945339;29;20032;-71
2021/12/18 10:53:03;;;;;;;0.65;0.65;;;5.10;99.90;;;;;;4942360;28;20039;-72
2021/12/18 10:55:42;;;;;;;0.10;0.10;;;5.10;99.90;;;;;;4950180;28;20031;-71
2021/12/18 10:58:11;;;;;;;0.57;0.57;;;5.20;99.90;;;;;;4947461;28;20028;-72
2021/12/18 11:00:52;;;;;;;0.30;0.30;;;5.20;99.90;;;;;;4947746;28;20023;-71
2021/12/18 11:03:38;;;;;;;0.10;0.10;;;5.20;99.90;;;;;;4945583;28;20031;-72
2021/12/18 11:06:13;;;;;;;0.10;0.10;;;5.20;99.90;;;;;;4957462;28;20043;-72
2021/12/18 11:09:08;;;;;;;0.10;0.10;;;5.20;99.90;;;;;;4948144;28;20027;-71
2021/12/18 11:14:17;;;;;;;0.50;0.50;;;5.10;99.90;;;;;;4945629;29;20059;-72
2021/12/18 11:16:49;;;;;;;0.10;0.10;;;4.80;99.90;;;;;;4948982;29;20513;-72
2021/12/18 11:19:17;;;;;;;0.10;0.10;;;5.00;99.90;;;;;;4947057;29;20515;-71
2021/12/18 11:21:48;;;;;;;0.10;0.10;;;5.10;99.90;;;;;;4950547;28;20037;-72
2021/12/18 11:24:15;;;;;;;0.20;0.20;;;5.20;99.90;;;;;;4946941;28;20486;-71
2021/12/18 11:26:49;;;;;;;0.10;0.10;;;5.20;99.90;;;;;;4963045;28;20082;-70
2021/12/18 11:29:55;;;;;;;0.10;0.10;;;4.90;99.90;;;;;;4960896;28;20042;-72
2021/12/18 11:32:27;;;;;;;0.10;0.10;;;4.90;99.90;;;;;;4932913;29;20039;-71
2021/12/18 11:34:57;;;;;;;0.10;0.10;;;5.10;99.90;;;;;;4950230;28;20067;-71
2021/12/18 11:37:25;;;;;;;0.10;0.10;;;5.10;99.90;;;;;;4951433;28;20038;-72
2021/12/18 11:39:57;;;;;;;0.10;0.10;;;5.00;99.90;;;;;;4950394;29;20066;-72
2021/12/18 11:42:32;;;;;;;1.55;1.45;;;5.10;99.90;;;;;;4951424;28;20027;-70
2021/12/18 11:45:01;;;;;;;0.20;0.20;;;5.20;99.90;;;;;;4950888;28;20034;-71
2021/12/18 11:47:30;;;;;;;0.10;0.10;;;5.10;99.90;;;;;;4953661;28;20027;-73
2021/12/18 11:50:17;;;;;;;0.10;0.10;;;4.90;99.90;;;;;;4943467;28;20486;-70
2021/12/18 11:53:08;;;;;;;0.10;0.10;;;4.90;99.90;;;;;;4945461;28;20125;-72
2021/12/18 11:55:55;;;;;;;0.10;0.10;;;5.10;99.90;;;;;;4957558;28;20023;-73
2021/12/18 11:58:32;;;;;;;0.10;0.10;;;5.20;99.90;;;;;;4945159;28;20028;-72
2021/12/18 12:01:11;;;;;;;0.40;0.40;;;5.30;99.90;;;;;;4948424;28;20058;-71
2021/12/18 12:04:01;;;;;;;0.10;0.10;;;5.40;99.90;;;;;;4951163;28;20054;-72
2021/12/18 12:06:30;;;;;;;0.10;0.10;;;5.30;99.90;;;;;;4949915;28;20490;-71
2021/12/18 12:09:33;;;;;;;0.10;0.10;;;5.50;99.90;;;;;;4950885;28;20034;-72
2021/12/18 12:12:04;;;;;;;0.10;0.10;;;5.50;99.90;;;;;;4950971;28;20290;-71
2021/12/18 12:14:35;;;;;;;0.20;0.20;;;5.60;99.90;;;;;;4950340;28;20031;-71
2021/12/18 12:17:16;;;;;;;0.10;0.10;;;5.50;99.90;;;;;;4941099;28;20099;-70
2021/12/18 12:20:07;;;;;;;0.32;0.32;;;5.40;99.90;;;;;;4930331;29;20115;-70
2021/12/18 12:22:36;;;;;;;0.10;0.10;;;6.00;99.90;;;;;;4932584;29;20123;-71
2021/12/18 12:25:04;;;;;;;0.10;0.10;;;5.50;99.90;;;;;;4937453;28;20031;-72
2021/12/18 12:27:32;;;;;;;0.13;0.13;;;5.40;99.90;;;;;;4951074;28;20442;-72
2021/12/18 12:30:00;;;;;;;0.10;0.10;;;5.20;99.90;;;;;;4945982;28;20040;-70
2021/12/18 12:32:29;;;;;;;0.10;0.10;;;5.20;99.90;;;;;;4932522;29;20024;-71
2021/12/18 12:35:12;;;;;;;0.10;0.10;;;5.30;99.90;;;;;;4938836;28;20089;-72
2021/12/18 12:37:46;;;;;;;0.10;0.10;;;5.40;99.90;;;;;;4954993;28;20303;-70
2021/12/18 12:40:16;;;;;;;0.10;0.10;;;5.10;99.90;;;;;;4953806;28;20126;-72
2021/12/18 12:43:21;;;;;;;0.17;0.17;;;5.10;99.90;;;;;;4960619;28;20035;-70
2021/12/18 12:45:50;;;;;;;0.10;0.10;;;5.30;99.90;;;;;;4965644;28;20059;-69
2021/12/18 12:48:17;;;;;;;0.10;0.10;;;5.30;99.90;;;;;;4956768;28;20027;-71
2021/12/18 12:50:52;;;;;;;0.10;0.10;;;5.60;99.90;;;;;;4961105;28;20031;-71
2021/12/18 12:53:18;;;;;;;0.20;0.20;;;5.70;99.90;;;;;;4976472;28;20042;-70
2021/12/18 12:55:46;;;;;;;0.10;0.10;;;5.60;99.90;;;;;;4954377;28;20027;-70
2021/12/18 12:58:24;;;;;;;0.10;0.10;;;5.70;99.90;;;;;;4953477;28;20050;-71
2021/12/18 13:01:03;;;;;;;0.30;0.30;;;5.70;99.90;;;;;;4965401;28;20468;-71
2021/12/18 13:03:48;;;;;;;0.10;0.10;;;5.70;99.90;;;;;;4937299;29;20031;-70
2021/12/18 13:06:22;;;;;;;0.10;0.10;;;5.70;99.90;;;;;;4935020;29;20543;-71
2021/12/18 13:08:49;;;;;;;0.10;0.10;;;5.70;99.90;;;;;;4935250;29;20040;-69
2021/12/18 13:11:20;;;;;;;0.20;0.20;;;5.60;99.90;;;;;;4942307;28;20031;-71
2021/12/18 13:13:46;;;;;;;0.10;0.10;;;5.60;99.90;;;;;;4951634;28;20023;-70
2021/12/18 13:16:15;;;;;;;0.10;0.10;;;5.50;99.90;;;;;;4953972;28;20027;-74
2021/12/18 13:18:43;;;;;;;0.10;0.10;;;5.60;99.90;;;;;;4953746;28;20066;-71
2021/12/18 13:21:16;;;;;;;0.10;0.10;;;5.60;99.90;;;;;;4952719;28;20027;-71
2021/12/18 13:24:00;;;;;;;0.13;0.13;;;5.60;99.90;;;;;;4953621;28;20457;-70
2021/12/18 13:26:32;;;;;;;0.10;0.10;;;5.50;99.90;;;;;;4954112;28;20035;-71
2021/12/18 13:29:12;;;;;;;3.03;2.83;;;5.60;99.90;;;;;;4953417;28;20500;-72
2021/12/18 13:31:54;;;;;;;0.10;0.10;;;5.70;99.90;;;;;;4952978;28;20039;-72
2021/12/18 13:34:32;;;;;;;0.10;0.10;;;5.60;99.90;;;;;;4953209;28;20114;-71
2021/12/18 13:37:16;;;;;;;0.10;0.10;;;5.60;99.90;;;;;;4953897;28;20020;-70
2021/12/18 13:39:47;;;;;;;0.10;0.10;;;5.70;99.90;;;;;;4934129;29;20055;-70
2021/12/18 13:42:14;;;;;;;0.10;0.10;;;5.70;99.90;;;;;;4933385;29;20032;-73
2021/12/18 13:44:40;;;;;;;0.10;0.10;;;5.70;99.90;;;;;;4961489;28;20508;-70
2021/12/18 13:47:20;;;;;;;0.10;0.10;;;5.50;99.90;;;;;;4952933;28;20071;-72
2021/12/18 13:49:47;;;;;;;0.20;0.20;;;5.40;99.90;;;;;;4953229;28;20034;-72
2021/12/18 13:52:12;;;;;;;0.10;0.10;;;5.50;99.90;;;;;;4952478;28;20121;-71